sensor_id;sensor_type;location;lat;lon;timestamp;P1;durP1;ratioP1;P2;durP2;ratioP2
2386;SDS011;49473;50.772;8.768;2023-04-24T00:01:00;2.00;;;1.10;;
2386;SDS011;49473;50.772;8.768;2023-04-24T00:03:27;2.40;;;0.97;;
2386;SDS011;49473;50.772;8.768;2023-04-24T00:05:54;2.67;;;1.10;;
2386;SDS011;49473;50.772;8.768;2023-04-24T00:08:22;1.10;;;1.00;;
2386;SDS011;49473;50.772;8.768;2023-04-24T00:10:49;2.43;;;1.13;;
2386;SDS011;49473;50.772;8.768;2023-04-24T00:13:17;1.70;;;1.00;;
2386;SDS011;49473;50.772;8.768;2023-04-24T00:15:43;2.47;;;1.07;;
2386;SDS011;49473;50.772;8.768;2023-04-24T00:18:10;2.20;;;1.13;;
2386;SDS011;49473;50.772;8.768;2023-04-24T00:20:37;1.40;;;1.10;;
2386;SDS011;49473;50.772;8.768;2023-04-24T00:23:04;1.00;;;0.90;;
2386;SDS011;49473;50.772;8.768;2023-04-24T00:25:32;1.90;;;0.83;;
2386;SDS011;49473;50.772;8.768;2023-04-24T00:27:59;1.07;;;0.90;;
2386;SDS011;49473;50.772;8.768;2023-04-24T00:30:27;1.20;;;1.10;;
2386;SDS011;49473;50.772;8.768;2023-04-24T00:32:54;1.40;;;1.30;;
2386;SDS011;49473;50.772;8.768;2023-04-24T00:35:21;3.13;;;1.33;;
2386;SDS011;49473;50.772;8.768;2023-04-24T00:37:48;1.23;;;1.13;;
2386;SDS011;49473;50.772;8.768;2023-04-24T00:40:15;1.50;;;1.40;;
2386;SDS011;49473;50.772;8.768;2023-04-24T00:42:43;2.07;;;1.30;;
2386;SDS011;49473;50.772;8.768;2023-04-24T00:45:10;1.53;;;1.37;;
2386;SDS011;49473;50.772;8.768;2023-04-24T00:47:37;1.47;;;1.20;;
2386;SDS011;49473;50.772;8.768;2023-04-24T00:50:05;1.70;;;1.10;;
2386;SDS011;49473;50.772;8.768;2023-04-24T00:52:33;1.00;;;1.00;;
2386;SDS011;49473;50.772;8.768;2023-04-24T00:55:01;1.33;;;1.23;;
2386;SDS011;49473;50.772;8.768;2023-04-24T00:57:29;1.13;;;1.00;;
2386;SDS011;49473;50.772;8.768;2023-04-24T00:59:57;1.50;;;1.30;;
2386;SDS011;49473;50.772;8.768;2023-04-24T01:02:24;2.27;;;1.03;;
2386;SDS011;49473;50.772;8.768;2023-04-24T01:04:51;1.77;;;1.63;;
2386;SDS011;49473;50.772;8.768;2023-04-24T01:07:19;1.43;;;1.33;;
2386;SDS011;49473;50.772;8.768;2023-04-24T01:09:46;2.07;;;1.53;;
2386;SDS011;49473;50.772;8.768;2023-04-24T01:12:16;1.50;;;1.40;;
2386;SDS011;49473;50.772;8.768;2023-04-24T01:14:43;2.20;;;1.20;;
2386;SDS011;49473;50.772;8.768;2023-04-24T01:17:11;2.00;;;1.33;;
2386;SDS011;49473;50.772;8.768;2023-04-24T01:19:38;2.70;;;1.30;;
2386;SDS011;49473;50.772;8.768;2023-04-24T01:22:11;1.60;;;1.50;;
2386;SDS011;49473;50.772;8.768;2023-04-24T01:24:39;1.60;;;1.10;;
2386;SDS011;49473;50.772;8.768;2023-04-24T01:27:06;1.87;;;1.30;;
2386;SDS011;49473;50.772;8.768;2023-04-24T01:29:34;1.40;;;1.30;;
2386;SDS011;49473;50.772;8.768;2023-04-24T01:32:02;1.40;;;1.30;;
2386;SDS011;49473;50.772;8.768;2023-04-24T01:34:29;1.13;;;1.03;;
2386;SDS011;49473;50.772;8.768;2023-04-24T01:36:56;1.07;;;1.07;;
2386;SDS011;49473;50.772;8.768;2023-04-24T01:39:24;1.77;;;1.20;;
2386;SDS011;49473;50.772;8.768;2023-04-24T01:41:53;1.20;;;1.20;;
2386;SDS011;49473;50.772;8.768;2023-04-24T01:44:20;2.70;;;1.30;;
2386;SDS011;49473;50.772;8.768;2023-04-24T01:46:47;2.50;;;2.37;;
2386;SDS011;49473;50.772;8.768;2023-04-24T01:49:14;1.17;;;1.17;;
2386;SDS011;49473;50.772;8.768;2023-04-24T01:51:40;2.20;;;1.37;;
2386;SDS011;49473;50.772;8.768;2023-04-24T01:54:07;2.83;;;1.80;;
2386;SDS011;49473;50.772;8.768;2023-04-24T01:56:36;2.73;;;1.60;;
2386;SDS011;49473;50.772;8.768;2023-04-24T01:59:06;1.90;;;1.70;;
2386;SDS011;49473;50.772;8.768;2023-04-24T02:01:35;2.23;;;2.10;;
2386;SDS011;49473;50.772;8.768;2023-04-24T02:04:03;1.60;;;1.50;;
2386;SDS011;49473;50.772;8.768;2023-04-24T02:06:30;2.40;;;1.70;;
2386;SDS011;49473;50.772;8.768;2023-04-24T02:08:57;2.93;;;1.57;;
2386;SDS011;49473;50.772;8.768;2023-04-24T02:11:24;1.63;;;1.43;;
2386;SDS011;49473;50.772;8.768;2023-04-24T02:13:52;2.37;;;1.57;;
2386;SDS011;49473;50.772;8.768;2023-04-24T02:16:18;1.70;;;1.60;;
2386;SDS011;49473;50.772;8.768;2023-04-24T02:18:45;1.60;;;1.50;;
2386;SDS011;49473;50.772;8.768;2023-04-24T02:21:12;2.07;;;1.60;;
2386;SDS011;49473;50.772;8.768;2023-04-24T02:23:39;2.17;;;1.93;;
2386;SDS011;49473;50.772;8.768;2023-04-24T02:26:06;1.70;;;1.60;;
2386;SDS011;49473;50.772;8.768;2023-04-24T02:28:33;1.50;;;1.40;;
2386;SDS011;49473;50.772;8.768;2023-04-24T02:31:01;3.30;;;1.83;;
2386;SDS011;49473;50.772;8.768;2023-04-24T02:33:28;1.67;;;1.40;;
2386;SDS011;49473;50.772;8.768;2023-04-24T02:35:54;1.83;;;1.73;;
2386;SDS011;49473;50.772;8.768;2023-04-24T02:38:21;2.40;;;1.50;;
2386;SDS011;49473;50.772;8.768;2023-04-24T02:40:48;4.30;;;2.10;;
2386;SDS011;49473;50.772;8.768;2023-04-24T02:43:14;2.50;;;1.70;;
2386;SDS011;49473;50.772;8.768;2023-04-24T02:45:41;1.93;;;1.83;;
2386;SDS011;49473;50.772;8.768;2023-04-24T02:48:09;3.83;;;1.87;;
2386;SDS011;49473;50.772;8.768;2023-04-24T02:50:36;1.50;;;1.40;;
2386;SDS011;49473;50.772;8.768;2023-04-24T02:53:03;4.13;;;1.87;;
2386;SDS011;49473;50.772;8.768;2023-04-24T02:55:29;1.10;;;1.10;;
2386;SDS011;49473;50.772;8.768;2023-04-24T02:57:56;1.90;;;1.80;;
2386;SDS011;49473;50.772;8.768;2023-04-24T03:00:23;2.90;;;1.50;;
2386;SDS011;49473;50.772;8.768;2023-04-24T03:02:50;1.77;;;1.67;;
2386;SDS011;49473;50.772;8.768;2023-04-24T03:05:18;3.37;;;1.73;;
2386;SDS011;49473;50.772;8.768;2023-04-24T03:07:45;1.90;;;1.80;;
2386;SDS011;49473;50.772;8.768;2023-04-24T03:10:11;2.20;;;2.10;;
2386;SDS011;49473;50.772;8.768;2023-04-24T03:12:38;2.17;;;2.07;;
2386;SDS011;49473;50.772;8.768;2023-04-24T03:15:05;2.20;;;2.10;;
2386;SDS011;49473;50.772;8.768;2023-04-24T03:17:33;2.03;;;1.83;;
2386;SDS011;49473;50.772;8.768;2023-04-24T03:20:00;1.93;;;1.83;;
2386;SDS011;49473;50.772;8.768;2023-04-24T03:22:28;2.30;;;1.80;;
2386;SDS011;49473;50.772;8.768;2023-04-24T03:24:57;1.80;;;1.70;;
2386;SDS011;49473;50.772;8.768;2023-04-24T03:27:24;1.93;;;1.83;;
2386;SDS011;49473;50.772;8.768;2023-04-24T03:29:51;1.63;;;1.53;;
2386;SDS011;49473;50.772;8.768;2023-04-24T03:32:20;2.53;;;1.63;;
2386;SDS011;49473;50.772;8.768;2023-04-24T03:34:47;1.87;;;1.67;;
2386;SDS011;49473;50.772;8.768;2023-04-24T03:37:14;1.60;;;1.50;;
2386;SDS011;49473;50.772;8.768;2023-04-24T03:39:42;1.83;;;1.70;;
2386;SDS011;49473;50.772;8.768;2023-04-24T03:42:09;1.60;;;1.50;;
2386;SDS011;49473;50.772;8.768;2023-04-24T03:44:36;1.87;;;1.40;;
2386;SDS011;49473;50.772;8.768;2023-04-24T03:47:03;1.63;;;1.53;;
2386;SDS011;49473;50.772;8.768;2023-04-24T03:49:30;1.67;;;1.20;;
2386;SDS011;49473;50.772;8.768;2023-04-24T03:51:56;2.27;;;1.40;;
2386;SDS011;49473;50.772;8.768;2023-04-24T03:54:23;1.67;;;1.20;;
2386;SDS011;49473;50.772;8.768;2023-04-24T03:56:51;1.53;;;1.20;;
2386;SDS011;49473;50.772;8.768;2023-04-24T03:59:18;1.23;;;1.17;;
2386;SDS011;49473;50.772;8.768;2023-04-24T04:01:45;4.53;;;2.20;;
2386;SDS011;49473;50.772;8.768;2023-04-24T04:04:11;1.20;;;1.13;;
2386;SDS011;49473;50.772;8.768;2023-04-24T04:06:38;1.37;;;1.27;;
2386;SDS011;49473;50.772;8.768;2023-04-24T04:09:05;2.97;;;1.20;;
2386;SDS011;49473;50.772;8.768;2023-04-24T04:11:32;2.83;;;1.33;;
2386;SDS011;49473;50.772;8.768;2023-04-24T04:14:01;2.20;;;1.30;;
2386;SDS011;49473;50.772;8.768;2023-04-24T04:16:29;1.70;;;1.60;;
2386;SDS011;49473;50.772;8.768;2023-04-24T04:18:56;1.07;;;1.07;;
2386;SDS011;49473;50.772;8.768;2023-04-24T04:21:22;1.10;;;1.10;;
2386;SDS011;49473;50.772;8.768;2023-04-24T04:23:49;1.40;;;1.30;;
2386;SDS011;49473;50.772;8.768;2023-04-24T04:26:16;1.47;;;1.37;;
2386;SDS011;49473;50.772;8.768;2023-04-24T04:28:44;1.50;;;1.40;;
2386;SDS011;49473;50.772;8.768;2023-04-24T04:31:12;1.40;;;1.30;;
2386;SDS011;49473;50.772;8.768;2023-04-24T04:33:38;1.50;;;1.40;;
2386;SDS011;49473;50.772;8.768;2023-04-24T04:36:05;1.80;;;1.70;;
2386;SDS011;49473;50.772;8.768;2023-04-24T04:38:32;2.03;;;1.93;;
2386;SDS011;49473;50.772;8.768;2023-04-24T04:41:00;2.60;;;2.40;;
2386;SDS011;49473;50.772;8.768;2023-04-24T04:43:27;1.73;;;1.63;;
2386;SDS011;49473;50.772;8.768;2023-04-24T04:45:54;2.80;;;2.60;;
2386;SDS011;49473;50.772;8.768;2023-04-24T04:48:22;2.67;;;2.47;;
2386;SDS011;49473;50.772;8.768;2023-04-24T04:50:49;2.33;;;2.23;;
2386;SDS011;49473;50.772;8.768;2023-04-24T04:53:16;3.20;;;2.10;;
2386;SDS011;49473;50.772;8.768;2023-04-24T04:55:42;2.10;;;2.00;;
2386;SDS011;49473;50.772;8.768;2023-04-24T04:58:09;2.30;;;2.10;;
2386;SDS011;49473;50.772;8.768;2023-04-24T05:00:36;1.93;;;1.83;;
2386;SDS011;49473;50.772;8.768;2023-04-24T05:03:04;1.93;;;1.83;;
2386;SDS011;49473;50.772;8.768;2023-04-24T05:05:32;2.03;;;1.80;;
2386;SDS011;49473;50.772;8.768;2023-04-24T05:07:59;1.70;;;1.60;;
2386;SDS011;49473;50.772;8.768;2023-04-24T05:10:26;1.87;;;1.77;;
2386;SDS011;49473;50.772;8.768;2023-04-24T05:12:52;1.70;;;1.60;;
2386;SDS011;49473;50.772;8.768;2023-04-24T05:15:19;2.20;;;2.10;;
2386;SDS011;49473;50.772;8.768;2023-04-24T05:17:46;2.80;;;2.60;;
2386;SDS011;49473;50.772;8.768;2023-04-24T05:20:12;2.40;;;2.27;;
2386;SDS011;49473;50.772;8.768;2023-04-24T05:22:41;3.23;;;2.83;;
2386;SDS011;49473;50.772;8.768;2023-04-24T05:25:08;2.67;;;2.43;;
2386;SDS011;49473;50.772;8.768;2023-04-24T05:27:35;2.43;;;2.00;;
2386;SDS011;49473;50.772;8.768;2023-04-24T05:30:02;2.00;;;1.90;;
2386;SDS011;49473;50.772;8.768;2023-04-24T05:32:29;1.90;;;1.80;;
2386;SDS011;49473;50.772;8.768;2023-04-24T05:34:56;2.57;;;2.37;;
2386;SDS011;49473;50.772;8.768;2023-04-24T05:37:23;2.90;;;1.73;;
2386;SDS011;49473;50.772;8.768;2023-04-24T05:39:51;2.10;;;1.90;;
2386;SDS011;49473;50.772;8.768;2023-04-24T05:42:18;1.80;;;1.70;;
2386;SDS011;49473;50.772;8.768;2023-04-24T05:44:44;2.07;;;1.97;;
2386;SDS011;49473;50.772;8.768;2023-04-24T05:47:11;1.87;;;1.77;;
2386;SDS011;49473;50.772;8.768;2023-04-24T05:49:38;1.80;;;1.70;;
2386;SDS011;49473;50.772;8.768;2023-04-24T05:52:05;1.83;;;1.73;;
2386;SDS011;49473;50.772;8.768;2023-04-24T05:54:33;2.03;;;1.93;;
2386;SDS011;49473;50.772;8.768;2023-04-24T05:57:01;3.60;;;2.27;;
2386;SDS011;49473;50.772;8.768;2023-04-24T05:59:32;4.40;;;4.10;;
2386;SDS011;49473;50.772;8.768;2023-04-24T06:01:59;2.57;;;2.47;;
2386;SDS011;49473;50.772;8.768;2023-04-24T06:04:26;6.87;;;3.57;;
2386;SDS011;49473;50.772;8.768;2023-04-24T06:06:52;3.13;;;2.53;;
2386;SDS011;49473;50.772;8.768;2023-04-24T06:09:21;4.33;;;4.03;;
2386;SDS011;49473;50.772;8.768;2023-04-24T06:11:48;4.60;;;4.30;;
2386;SDS011;49473;50.772;8.768;2023-04-24T06:14:16;4.93;;;4.53;;
2386;SDS011;49473;50.772;8.768;2023-04-24T06:16:43;4.90;;;4.50;;
2386;SDS011;49473;50.772;8.768;2023-04-24T06:19:10;5.90;;;5.30;;
2386;SDS011;49473;50.772;8.768;2023-04-24T06:21:37;5.50;;;5.00;;
2386;SDS011;49473;50.772;8.768;2023-04-24T06:24:03;6.40;;;5.10;;
2386;SDS011;49473;50.772;8.768;2023-04-24T06:26:30;5.80;;;4.90;;
2386;SDS011;49473;50.772;8.768;2023-04-24T06:28:57;2.17;;;2.07;;
2386;SDS011;49473;50.772;8.768;2023-04-24T06:31:26;2.17;;;1.90;;
2386;SDS011;49473;50.772;8.768;2023-04-24T06:33:53;2.27;;;2.07;;
2386;SDS011;49473;50.772;8.768;2023-04-24T06:36:20;2.90;;;2.07;;
2386;SDS011;49473;50.772;8.768;2023-04-24T06:38:46;5.80;;;5.30;;
2386;SDS011;49473;50.772;8.768;2023-04-24T06:41:13;5.03;;;4.43;;
2386;SDS011;49473;50.772;8.768;2023-04-24T06:43:40;5.87;;;5.30;;
2386;SDS011;49473;50.772;8.768;2023-04-24T06:46:06;6.90;;;5.10;;
2386;SDS011;49473;50.772;8.768;2023-04-24T06:48:35;5.97;;;5.03;;
2386;SDS011;49473;50.772;8.768;2023-04-24T06:51:02;5.60;;;5.00;;
2386;SDS011;49473;50.772;8.768;2023-04-24T06:53:28;6.57;;;5.57;;
2386;SDS011;49473;50.772;8.768;2023-04-24T06:55:55;6.20;;;5.50;;
2386;SDS011;49473;50.772;8.768;2023-04-24T06:58:22;6.47;;;5.77;;
2386;SDS011;49473;50.772;8.768;2023-04-24T07:00:49;7.23;;;4.90;;
2386;SDS011;49473;50.772;8.768;2023-04-24T07:03:15;6.70;;;5.40;;
2386;SDS011;49473;50.772;8.768;2023-04-24T07:05:43;8.23;;;5.90;;
2386;SDS011;49473;50.772;8.768;2023-04-24T07:08:11;7.20;;;5.67;;
2386;SDS011;49473;50.772;8.768;2023-04-24T07:10:38;5.73;;;5.13;;
2386;SDS011;49473;50.772;8.768;2023-04-24T07:13:05;3.90;;;3.30;;
2386;SDS011;49473;50.772;8.768;2023-04-24T07:15:33;2.60;;;2.50;;
2386;SDS011;49473;50.772;8.768;2023-04-24T07:18:00;2.70;;;2.17;;
2386;SDS011;49473;50.772;8.768;2023-04-24T07:20:27;2.23;;;2.13;;
2386;SDS011;49473;50.772;8.768;2023-04-24T07:22:55;2.47;;;1.90;;
2386;SDS011;49473;50.772;8.768;2023-04-24T07:25:22;4.60;;;4.20;;
2386;SDS011;49473;50.772;8.768;2023-04-24T07:27:49;2.37;;;2.17;;
2386;SDS011;49473;50.772;8.768;2023-04-24T07:30:16;2.30;;;2.20;;
2386;SDS011;49473;50.772;8.768;2023-04-24T07:32:42;3.03;;;2.93;;
2386;SDS011;49473;50.772;8.768;2023-04-24T07:35:09;3.03;;;2.73;;
2386;SDS011;49473;50.772;8.768;2023-04-24T07:37:36;2.47;;;2.27;;
2386;SDS011;49473;50.772;8.768;2023-04-24T07:40:05;2.20;;;2.10;;
2386;SDS011;49473;50.772;8.768;2023-04-24T07:42:33;3.13;;;2.93;;
2386;SDS011;49473;50.772;8.768;2023-04-24T07:44:59;2.77;;;2.53;;
2386;SDS011;49473;50.772;8.768;2023-04-24T07:47:26;3.73;;;3.53;;
2386;SDS011;49473;50.772;8.768;2023-04-24T07:49:53;2.70;;;2.50;;
2386;SDS011;49473;50.772;8.768;2023-04-24T07:52:20;3.10;;;2.90;;
2386;SDS011;49473;50.772;8.768;2023-04-24T07:54:46;4.10;;;3.80;;
2386;SDS011;49473;50.772;8.768;2023-04-24T07:57:16;3.87;;;3.53;;
2386;SDS011;49473;50.772;8.768;2023-04-24T07:59:43;3.70;;;3.50;;
2386;SDS011;49473;50.772;8.768;2023-04-24T08:02:10;2.90;;;2.80;;
2386;SDS011;49473;50.772;8.768;2023-04-24T08:04:36;4.43;;;4.03;;
2386;SDS011;49473;50.772;8.768;2023-04-24T08:07:03;3.47;;;3.27;;
2386;SDS011;49473;50.772;8.768;2023-04-24T08:09:30;3.50;;;2.83;;
2386;SDS011;49473;50.772;8.768;2023-04-24T08:11:57;3.13;;;2.90;;
2386;SDS011;49473;50.772;8.768;2023-04-24T08:14:25;3.67;;;3.37;;
2386;SDS011;49473;50.772;8.768;2023-04-24T08:16:53;5.10;;;4.70;;
2386;SDS011;49473;50.772;8.768;2023-04-24T08:19:20;4.70;;;4.33;;
2386;SDS011;49473;50.772;8.768;2023-04-24T08:21:47;5.00;;;4.70;;
2386;SDS011;49473;50.772;8.768;2023-04-24T08:24:14;6.70;;;4.70;;
2386;SDS011;49473;50.772;8.768;2023-04-24T08:26:41;6.50;;;5.20;;
2386;SDS011;49473;50.772;8.768;2023-04-24T08:29:08;6.40;;;5.83;;
2386;SDS011;49473;50.772;8.768;2023-04-24T08:31:36;6.30;;;5.70;;
2386;SDS011;49473;50.772;8.768;2023-04-24T08:34:02;6.57;;;5.83;;
2386;SDS011;49473;50.772;8.768;2023-04-24T08:36:29;6.03;;;5.30;;
2386;SDS011;49473;50.772;8.768;2023-04-24T08:38:56;5.87;;;5.37;;
2386;SDS011;49473;50.772;8.768;2023-04-24T08:41:23;2.70;;;2.50;;
2386;SDS011;49473;50.772;8.768;2023-04-24T08:43:51;2.40;;;2.30;;
2386;SDS011;49473;50.772;8.768;2023-04-24T08:46:18;2.77;;;2.60;;
2386;SDS011;49473;50.772;8.768;2023-04-24T08:48:47;2.70;;;2.50;;
2386;SDS011;49473;50.772;8.768;2023-04-24T08:51:15;2.47;;;2.37;;
2386;SDS011;49473;50.772;8.768;2023-04-24T08:53:43;4.13;;;3.83;;
2386;SDS011;49473;50.772;8.768;2023-04-24T08:56:11;3.27;;;3.07;;
2386;SDS011;49473;50.772;8.768;2023-04-24T08:58:38;4.00;;;3.70;;
2386;SDS011;49473;50.772;8.768;2023-04-24T09:01:05;4.63;;;4.33;;
2386;SDS011;49473;50.772;8.768;2023-04-24T09:03:32;4.90;;;4.60;;
2386;SDS011;49473;50.772;8.768;2023-04-24T09:06:03;5.37;;;4.87;;
2386;SDS011;49473;50.772;8.768;2023-04-24T09:08:32;4.77;;;4.37;;
2386;SDS011;49473;50.772;8.768;2023-04-24T09:10:59;5.03;;;4.73;;
2386;SDS011;49473;50.772;8.768;2023-04-24T09:13:27;4.97;;;4.57;;
2386;SDS011;49473;50.772;8.768;2023-04-24T09:15:55;5.00;;;4.60;;
2386;SDS011;49473;50.772;8.768;2023-04-24T09:18:23;5.87;;;5.27;;
2386;SDS011;49473;50.772;8.768;2023-04-24T09:21:00;5.23;;;4.73;;
2386;SDS011;49473;50.772;8.768;2023-04-24T09:23:30;5.00;;;4.50;;
2386;SDS011;49473;50.772;8.768;2023-04-24T09:25:58;4.83;;;4.43;;
2386;SDS011;49473;50.772;8.768;2023-04-24T09:28:27;4.97;;;4.57;;
2386;SDS011;49473;50.772;8.768;2023-04-24T09:31:04;5.20;;;4.27;;
2386;SDS011;49473;50.772;8.768;2023-04-24T09:33:32;4.57;;;4.17;;
2386;SDS011;49473;50.772;8.768;2023-04-24T09:35:59;5.97;;;4.50;;
2386;SDS011;49473;50.772;8.768;2023-04-24T09:38:32;4.87;;;4.57;;
2386;SDS011;49473;50.772;8.768;2023-04-24T09:41:01;4.80;;;4.40;;
2386;SDS011;49473;50.772;8.768;2023-04-24T09:43:29;4.13;;;3.83;;
2386;SDS011;49473;50.772;8.768;2023-04-24T09:45:57;3.93;;;3.63;;
2386;SDS011;49473;50.772;8.768;2023-04-24T09:48:32;4.30;;;3.90;;
2386;SDS011;49473;50.772;8.768;2023-04-24T09:51:00;4.20;;;3.90;;
2386;SDS011;49473;50.772;8.768;2023-04-24T09:53:28;4.00;;;3.70;;
2386;SDS011;49473;50.772;8.768;2023-04-24T09:55:58;4.27;;;3.87;;
2386;SDS011;49473;50.772;8.768;2023-04-24T09:58:29;4.00;;;3.70;;
2386;SDS011;49473;50.772;8.768;2023-04-24T10:00:56;4.30;;;3.90;;
2386;SDS011;49473;50.772;8.768;2023-04-24T10:03:23;3.70;;;3.40;;
2386;SDS011;49473;50.772;8.768;2023-04-24T10:05:52;4.20;;;3.80;;
2386;SDS011;49473;50.772;8.768;2023-04-24T10:08:19;3.90;;;3.60;;
2386;SDS011;49473;50.772;8.768;2023-04-24T10:10:46;3.73;;;3.40;;
2386;SDS011;49473;50.772;8.768;2023-04-24T10:13:15;3.33;;;3.03;;
2386;SDS011;49473;50.772;8.768;2023-04-24T10:15:42;3.40;;;3.20;;
2386;SDS011;49473;50.772;8.768;2023-04-24T10:18:09;3.73;;;3.30;;
2386;SDS011;49473;50.772;8.768;2023-04-24T10:20:38;1.53;;;1.40;;
2386;SDS011;49473;50.772;8.768;2023-04-24T10:23:06;2.20;;;2.10;;
2386;SDS011;49473;50.772;8.768;2023-04-24T10:25:34;3.43;;;3.13;;
2386;SDS011;49473;50.772;8.768;2023-04-24T10:28:02;3.17;;;2.87;;
2386;SDS011;49473;50.772;8.768;2023-04-24T10:30:31;3.40;;;3.10;;
2386;SDS011;49473;50.772;8.768;2023-04-24T10:33:00;3.30;;;3.00;;
2386;SDS011;49473;50.772;8.768;2023-04-24T10:35:29;3.63;;;2.97;;
2386;SDS011;49473;50.772;8.768;2023-04-24T10:37:58;2.97;;;2.67;;
2386;SDS011;49473;50.772;8.768;2023-04-24T10:40:29;2.90;;;2.60;;
2386;SDS011;49473;50.772;8.768;2023-04-24T10:42:57;3.27;;;2.87;;
2386;SDS011;49473;50.772;8.768;2023-04-24T10:45:24;2.90;;;2.40;;
2386;SDS011;49473;50.772;8.768;2023-04-24T10:47:52;2.80;;;2.50;;
2386;SDS011;49473;50.772;8.768;2023-04-24T10:50:23;2.63;;;2.43;;
2386;SDS011;49473;50.772;8.768;2023-04-24T10:52:51;2.93;;;2.67;;
2386;SDS011;49473;50.772;8.768;2023-04-24T10:58:08;2.93;;;2.53;;
2386;SDS011;49473;50.772;8.768;2023-04-24T11:00:36;3.03;;;2.60;;
2386;SDS011;49473;50.772;8.768;2023-04-24T11:03:05;3.00;;;2.60;;
2386;SDS011;49473;50.772;8.768;2023-04-24T11:05:52;2.93;;;2.63;;
2386;SDS011;49473;50.772;8.768;2023-04-24T11:08:23;2.83;;;2.53;;
2386;SDS011;49473;50.772;8.768;2023-04-24T11:10:55;3.20;;;2.63;;
2386;SDS011;49473;50.772;8.768;2023-04-24T11:13:27;3.40;;;2.80;;
2386;SDS011;49473;50.772;8.768;2023-04-24T11:16:16;3.23;;;2.67;;
2386;SDS011;49473;50.772;8.768;2023-04-24T11:18:50;3.20;;;2.57;;
2386;SDS011;49473;50.772;8.768;2023-04-24T11:21:19;3.30;;;2.60;;
2386;SDS011;49473;50.772;8.768;2023-04-24T11:23:48;3.40;;;2.80;;
2386;SDS011;49473;50.772;8.768;2023-04-24T11:26:17;3.47;;;2.83;;
2386;SDS011;49473;50.772;8.768;2023-04-24T11:28:48;3.23;;;2.73;;
2386;SDS011;49473;50.772;8.768;2023-04-24T11:31:36;3.30;;;2.70;;
2386;SDS011;49473;50.772;8.768;2023-04-24T11:34:07;3.57;;;2.80;;
2386;SDS011;49473;50.772;8.768;2023-04-24T11:36:35;3.50;;;2.70;;
2386;SDS011;49473;50.772;8.768;2023-04-24T11:39:03;3.60;;;2.93;;
2386;SDS011;49473;50.772;8.768;2023-04-24T11:41:30;3.50;;;2.97;;
2386;SDS011;49473;50.772;8.768;2023-04-24T11:43:57;3.40;;;2.77;;
2386;SDS011;49473;50.772;8.768;2023-04-24T11:46:26;3.33;;;2.80;;
2386;SDS011;49473;50.772;8.768;2023-04-24T11:48:56;3.63;;;2.90;;
2386;SDS011;49473;50.772;8.768;2023-04-24T11:51:23;3.10;;;2.80;;
2386;SDS011;49473;50.772;8.768;2023-04-24T11:53:51;3.83;;;2.90;;
2386;SDS011;49473;50.772;8.768;2023-04-24T11:56:18;3.10;;;2.80;;
2386;SDS011;49473;50.772;8.768;2023-04-24T11:58:45;3.00;;;2.63;;
2386;SDS011;49473;50.772;8.768;2023-04-24T12:01:12;3.70;;;3.23;;
2386;SDS011;49473;50.772;8.768;2023-04-24T12:03:40;3.70;;;3.10;;
2386;SDS011;49473;50.772;8.768;2023-04-24T12:06:10;3.87;;;3.30;;
2386;SDS011;49473;50.772;8.768;2023-04-24T12:08:37;4.00;;;3.20;;
2386;SDS011;49473;50.772;8.768;2023-04-24T12:11:05;4.10;;;3.40;;
2386;SDS011;49473;50.772;8.768;2023-04-24T12:13:33;3.93;;;3.50;;
2386;SDS011;49473;50.772;8.768;2023-04-24T12:16:01;4.00;;;3.30;;
2386;SDS011;49473;50.772;8.768;2023-04-24T12:18:29;3.83;;;3.27;;
2386;SDS011;49473;50.772;8.768;2023-04-24T12:23:42;4.00;;;3.60;;
2386;SDS011;49473;50.772;8.768;2023-04-24T12:26:10;5.67;;;3.87;;
2386;SDS011;49473;50.772;8.768;2023-04-24T12:28:37;6.43;;;4.00;;
2386;SDS011;49473;50.772;8.768;2023-04-24T12:31:05;4.67;;;4.20;;
2386;SDS011;49473;50.772;8.768;2023-04-24T12:33:33;4.47;;;3.97;;
2386;SDS011;49473;50.772;8.768;2023-04-24T12:36:01;4.47;;;3.70;;
2386;SDS011;49473;50.772;8.768;2023-04-24T12:38:29;4.57;;;4.17;;
2386;SDS011;49473;50.772;8.768;2023-04-24T12:41:05;4.40;;;4.00;;
2386;SDS011;49473;50.772;8.768;2023-04-24T12:43:33;3.90;;;3.53;;
2386;SDS011;49473;50.772;8.768;2023-04-24T12:46:00;4.23;;;3.83;;
2386;SDS011;49473;50.772;8.768;2023-04-24T12:48:28;3.97;;;3.67;;
2386;SDS011;49473;50.772;8.768;2023-04-24T12:50:56;3.20;;;3.00;;
2386;SDS011;49473;50.772;8.768;2023-04-24T12:53:26;3.87;;;3.57;;
2386;SDS011;49473;50.772;8.768;2023-04-24T12:55:56;2.60;;;2.40;;
2386;SDS011;49473;50.772;8.768;2023-04-24T12:58:23;1.87;;;1.70;;
2386;SDS011;49473;50.772;8.768;2023-04-24T13:00:50;3.80;;;3.50;;
2386;SDS011;49473;50.772;8.768;2023-04-24T13:03:16;3.23;;;2.93;;
2386;SDS011;49473;50.772;8.768;2023-04-24T13:05:44;2.53;;;2.37;;
2386;SDS011;49473;50.772;8.768;2023-04-24T13:08:11;4.97;;;3.33;;
2386;SDS011;49473;50.772;8.768;2023-04-24T13:10:39;3.70;;;3.40;;
2386;SDS011;49473;50.772;8.768;2023-04-24T13:13:08;3.47;;;3.27;;
2386;SDS011;49473;50.772;8.768;2023-04-24T13:15:34;3.83;;;3.53;;
2386;SDS011;49473;50.772;8.768;2023-04-24T13:18:01;4.03;;;3.70;;
2386;SDS011;49473;50.772;8.768;2023-04-24T13:20:28;4.53;;;4.13;;
2386;SDS011;49473;50.772;8.768;2023-04-24T13:22:55;4.43;;;4.13;;
2386;SDS011;49473;50.772;8.768;2023-04-24T13:25:22;4.20;;;3.80;;
2386;SDS011;49473;50.772;8.768;2023-04-24T13:27:49;3.90;;;3.60;;
2386;SDS011;49473;50.772;8.768;2023-04-24T13:30:18;4.10;;;3.70;;
2386;SDS011;49473;50.772;8.768;2023-04-24T13:32:45;3.90;;;3.60;;
2386;SDS011;49473;50.772;8.768;2023-04-24T13:35:12;4.07;;;3.67;;
2386;SDS011;49473;50.772;8.768;2023-04-24T13:37:38;3.70;;;3.40;;
2386;SDS011;49473;50.772;8.768;2023-04-24T13:40:05;3.93;;;3.63;;
2386;SDS011;49473;50.772;8.768;2023-04-24T13:42:33;4.03;;;3.73;;
2386;SDS011;49473;50.772;8.768;2023-04-24T13:45:00;3.70;;;3.40;;
2386;SDS011;49473;50.772;8.768;2023-04-24T13:47:28;4.30;;;3.67;;
2386;SDS011;49473;50.772;8.768;2023-04-24T13:49:55;4.33;;;3.93;;
2386;SDS011;49473;50.772;8.768;2023-04-24T13:52:21;3.63;;;3.33;;
2386;SDS011;49473;50.772;8.768;2023-04-24T13:54:48;3.80;;;3.50;;
2386;SDS011;49473;50.772;8.768;2023-04-24T13:57:15;3.90;;;3.50;;
2386;SDS011;49473;50.772;8.768;2023-04-24T13:59:42;4.43;;;3.47;;
2386;SDS011;49473;50.772;8.768;2023-04-24T14:02:10;3.90;;;3.50;;
2386;SDS011;49473;50.772;8.768;2023-04-24T14:04:38;4.30;;;3.70;;
2386;SDS011;49473;50.772;8.768;2023-04-24T14:07:05;4.67;;;3.90;;
2386;SDS011;49473;50.772;8.768;2023-04-24T14:09:33;4.47;;;4.00;;
2386;SDS011;49473;50.772;8.768;2023-04-24T14:11:59;3.90;;;3.50;;
2386;SDS011;49473;50.772;8.768;2023-04-24T14:14:27;3.10;;;2.90;;
2386;SDS011;49473;50.772;8.768;2023-04-24T14:16:54;1.93;;;1.77;;
2386;SDS011;49473;50.772;8.768;2023-04-24T14:19:21;4.03;;;2.13;;
2386;SDS011;49473;50.772;8.768;2023-04-24T14:21:50;2.20;;;2.00;;
2386;SDS011;49473;50.772;8.768;2023-04-24T14:24:17;5.93;;;5.33;;
2386;SDS011;49473;50.772;8.768;2023-04-24T14:26:44;7.90;;;7.07;;
2386;SDS011;49473;50.772;8.768;2023-04-24T14:29:11;5.67;;;5.27;;
2386;SDS011;49473;50.772;8.768;2023-04-24T14:31:38;4.10;;;3.70;;
2386;SDS011;49473;50.772;8.768;2023-04-24T14:34:04;4.63;;;4.27;;
2386;SDS011;49473;50.772;8.768;2023-04-24T14:36:31;5.93;;;4.83;;
2386;SDS011;49473;50.772;8.768;2023-04-24T14:38:59;7.93;;;4.33;;
2386;SDS011;49473;50.772;8.768;2023-04-24T14:41:28;5.10;;;4.80;;
2386;SDS011;49473;50.772;8.768;2023-04-24T14:43:55;5.53;;;5.03;;
2386;SDS011;49473;50.772;8.768;2023-04-24T14:46:22;6.27;;;4.60;;
2386;SDS011;49473;50.772;8.768;2023-04-24T14:48:48;5.30;;;4.80;;
2386;SDS011;49473;50.772;8.768;2023-04-24T14:51:15;4.53;;;4.23;;
2386;SDS011;49473;50.772;8.768;2023-04-24T14:53:42;4.57;;;4.03;;
2386;SDS011;49473;50.772;8.768;2023-04-24T14:56:13;6.23;;;4.60;;
2386;SDS011;49473;50.772;8.768;2023-04-24T14:58:40;3.90;;;3.60;;
2386;SDS011;49473;50.772;8.768;2023-04-24T15:01:06;5.43;;;4.17;;
2386;SDS011;49473;50.772;8.768;2023-04-24T15:03:33;4.23;;;3.90;;
2386;SDS011;49473;50.772;8.768;2023-04-24T15:06:00;4.37;;;3.97;;
2386;SDS011;49473;50.772;8.768;2023-04-24T15:08:27;3.80;;;3.50;;